Time;durP1;ratioP1;P1;durP2;ratioP2;P2;SDS_P1;SDS_P2;PMS_P1;PMS_P2;Temp;Humidity;BMP_temperature;BMP_pressure;BME280_temperature;BME280_humidity;BME280_pressure;Samples;Min_cycle;Max_cycle;Signal;HPM_P1;HPM_P2
2023/10/28 00:01:36;;;;;;;22.30;12.00;;;;;;;18.17;100.00;96351.69;109745;1250;68882;-57
2023/10/28 00:04:03;;;;;;;11.80;8.00;;;;;;;18.26;100.00;96350.02;109120;1252;71129;-54
2023/10/28 00:06:29;;;;;;;13.90;7.50;;;;;;;18.25;100.00;96341.40;109539;1252;60826;-54
2023/10/28 00:08:56;;;;;;;11.10;7.50;;;;;;;18.27;100.00;96339.00;109632;1251;59804;-54
2023/10/28 00:11:23;;;;;;;12.40;8.30;;;;;;;18.26;100.00;96329.00;109776;1250;74036;-54
2023/10/28 00:13:50;;;;;;;12.60;8.50;;;;;;;18.32;100.00;96332.89;109737;1250;67366;-53
2023/10/28 00:16:16;;;;;;;14.70;8.20;;;;;;;18.37;100.00;96329.58;109446;1251;71254;-53
2023/10/28 00:18:43;;;;;;;13.20;8.40;;;;;;;18.23;100.00;96321.53;109701;1250;60690;-53
2023/10/28 00:21:11;;;;;;;12.20;7.80;;;;;;;18.24;100.00;96321.48;109470;1251;60302;-53
2023/10/28 00:23:38;;;;;;;19.40;9.70;;;;;;;18.37;100.00;96313.59;109745;1250;75275;-53
2023/10/28 00:26:05;;;;;;;10.70;9.20;;;;;;;18.26;100.00;96304.71;109752;1250;67693;-54
2023/10/28 00:28:35;;;;;;;20.00;9.30;;;;;;;18.29;100.00;96303.41;109733;1250;72457;-54
2023/10/28 00:31:02;;;;;;;12.60;8.80;;;;;;;18.39;100.00;96298.16;109713;1250;61773;-55
2023/10/28 00:33:29;;;;;;;9.40;7.50;;;;;;;18.36;100.00;96296.29;109696;1250;59905;-59
2023/10/28 00:35:56;;;;;;;10.90;7.00;;;;;;;18.35;100.00;96285.73;109774;1250;75322;-55
2023/10/28 00:38:22;;;;;;;16.70;8.10;;;;;;;18.32;100.00;96284.73;109602;1251;67258;-54
2023/10/28 00:40:49;;;;;;;13.40;6.90;;;;;;;18.36;100.00;96278.14;109302;1250;72489;-55
2023/10/28 00:43:25;;;;;;;14.90;7.50;;;;;;;18.43;100.00;96270.95;109746;1250;61674;-54
2023/10/28 00:45:54;;;;;;;12.30;7.40;;;;;;;18.47;100.00;96264.50;109756;1250;59750;-54
2023/10/28 00:48:20;;;;;;;11.30;6.90;;;;;;;18.55;100.00;96258.24;109593;1251;75472;-54
2023/10/28 00:50:47;;;;;;;9.80;7.00;;;;;;;18.42;100.00;96252.16;109482;1251;67440;-54
2023/10/28 00:53:13;;;;;;;9.00;6.30;;;;;;;18.24;100.00;96244.22;109652;1251;72505;-53
2023/10/28 00:55:40;;;;;;;12.30;6.50;;;;;;;17.96;100.00;96241.34;109121;1256;60718;-55
2023/10/28 00:58:08;;;;;;;7.90;6.60;;;;;;;18.07;100.00;96238.44;109337;1254;60366;-54
2023/10/28 01:00:35;;;;;;;12.20;6.80;;;;;;;18.05;100.00;96231.61;109052;1254;75596;-54
2023/10/28 01:03:03;;;;;;;13.50;7.70;;;;;;;18.23;100.00;96229.95;109379;1254;67590;-54
2023/10/28 01:05:30;;;;;;;11.10;6.10;;;;;;;18.40;100.00;96227.27;109276;1254;72803;-55
2023/10/28 01:07:58;;;;;;;16.60;9.20;;;;;;;18.50;100.00;96219.36;109011;1254;62115;-55
2023/10/28 01:10:28;;;;;;;37.70;16.60;;;;;;;18.64;100.00;96224.52;109465;1253;59749;-54
2023/10/28 01:12:55;;;;;;;46.30;20.80;;;;;;;18.64;100.00;96219.22;109163;1254;75525;-54
2023/10/28 01:15:22;;;;;;;43.20;19.50;;;;;;;18.68;100.00;96214.42;109518;1253;67178;-55
2023/10/28 01:17:49;;;;;;;44.70;19.90;;;;;;;18.78;100.00;96214.59;109453;1253;72497;-54
2023/10/28 01:20:16;;;;;;;24.10;10.70;;;;;;;18.83;100.00;96207.45;109480;1253;61782;-55
2023/10/28 01:22:43;;;;;;;25.10;9.60;;;;;;;18.83;99.58;96206.36;109515;1253;60393;-54
2023/10/28 01:25:10;;;;;;;45.50;19.10;;;;;;;18.94;97.86;96201.39;109551;1253;75299;-54
2023/10/28 01:27:36;;;;;;;19.60;9.50;;;;;;;19.03;96.02;96201.05;109511;1252;67212;-55
2023/10/28 01:30:04;;;;;;;26.50;11.10;;;;;;;18.80;95.64;96194.33;109569;1251;72733;-54
2023/10/28 01:32:31;;;;;;;40.00;16.90;;;;;;;18.88;92.94;96187.96;109398;1251;60582;-54
2023/10/28 01:34:58;;;;;;;12.50;5.00;;;;;;;18.90;90.06;96198.05;109711;1251;60244;-55
2023/10/28 01:37:24;;;;;;;37.00;14.80;;;;;;;18.90;88.17;96188.95;109653;1251;75257;-56
2023/10/28 01:39:52;;;;;;;28.20;13.90;;;;;;;18.89;86.72;96189.18;109401;1250;67710;-56
2023/10/28 01:42:20;;;;;;;25.20;11.20;;;;;;;18.95;85.07;96179.64;109620;1251;72398;-55
2023/10/28 01:44:47;;;;;;;70.30;29.20;;;;;;;19.06;84.56;96181.80;109671;1250;61126;-55
2023/10/28 01:47:14;;;;;;;50.50;22.80;;;;;;;19.10;83.09;96170.91;109648;1251;60141;-55
2023/10/28 01:49:42;;;;;;;10.90;5.90;;;;;;;18.93;83.07;96179.40;109666;1250;75466;-53
2023/10/28 01:52:09;;;;;;;42.90;20.50;;;;;;;18.58;80.67;96173.73;109440;1251;68558;-55
2023/10/28 01:54:36;;;;;;;33.60;14.10;;;;;;;18.27;81.20;96184.27;109627;1251;71290;-55
2023/10/28 01:57:07;;;;;;;35.30;15.30;;;;;;;18.13;79.00;96191.61;109531;1252;59669;-54
2023/10/28 01:59:34;;;;;;;5.10;3.30;;;;;;;17.93;79.60;96188.70;109624;1251;59802;-54
2023/10/28 02:02:02;;;;;;;33.60;15.00;;;;;;;17.75;80.68;96189.33;109553;1252;74722;-55
2023/10/28 02:04:30;;;;;;;10.30;5.30;;;;;;;17.72;80.56;96186.91;109528;1252;68358;-54
2023/10/28 02:06:57;;;;;;;19.30;10.10;;;;;;;17.57;80.79;96183.44;109401;1252;72502;-55
2023/10/28 02:09:26;;;;;;;7.60;3.30;;;;;;;17.62;80.28;96179.66;109732;1250;60396;-55
2023/10/28 02:11:53;;;;;;;17.00;11.00;;;;;;;17.32;80.89;96171.40;109376;1251;59893;-54
2023/10/28 02:14:22;;;;;;;25.70;11.80;;;;;;;17.42;81.04;96170.98;109760;1254;75330;-55
2023/10/28 02:16:53;;;;;;;16.90;8.80;;;;;;;17.31;80.28;96163.19;109612;1251;68532;-54
2023/10/28 02:19:21;;;;;;;13.80;6.20;;;;;;;17.50;80.07;96174.50;109619;1251;71543;-55
2023/10/28 02:21:49;;;;;;;18.40;10.20;;;;;;;17.26;79.54;96152.94;109400;1251;61807;-55
2023/10/28 02:24:25;;;;;;;14.30;7.30;;;;;;;17.48;79.18;96153.50;109734;1250;59733;-55
2023/10/28 02:26:52;;;;;;;30.70;10.40;;;;;;;17.30;79.55;96161.17;109775;1250;74458;-53
2023/10/28 02:29:19;;;;;;;44.00;19.80;;;;;;;17.16;79.61;96141.20;109735;1250;68604;-55
2023/10/28 02:31:46;;;;;;;8.70;5.10;;;;;;;17.12;79.52;96136.77;109645;1250;72473;-53
2023/10/28 02:34:13;;;;;;;29.70;10.90;;;;;;;17.20;79.82;96137.27;109711;1250;60527;-55
2023/10/28 02:36:39;;;;;;;19.10;8.70;;;;;;;17.08;79.93;96126.70;109671;1250;60077;-56
2023/10/28 02:39:06;;;;;;;17.20;10.10;;;;;;;17.06;80.29;96120.10;109605;1250;74270;-54
2023/10/28 02:41:33;;;;;;;25.40;12.00;;;;;;;17.11;80.79;96125.15;109725;1250;67724;-55
2023/10/28 02:44:02;;;;;;;11.30;6.60;;;;;;;17.06;80.60;96119.85;109684;1250;72483;-54
2023/10/28 02:46:29;;;;;;;3.30;1.90;;;;;;;17.05;81.44;96122.02;109434;1251;61830;-54
2023/10/28 02:48:55;;;;;;;12.80;7.50;;;;;;;16.86;82.62;96105.65;109630;1251;60128;-54
2023/10/28 02:51:22;;;;;;;23.90;9.20;;;;;;;16.74;83.39;96106.05;109722;1250;75234;-55
2023/10/28 02:53:49;;;;;;;9.20;5.30;;;;;;;16.83;84.05;96102.33;109771;1250;67231;-55
2023/10/28 02:56:15;;;;;;;12.70;6.40;;;;;;;16.71;84.53;96098.60;109578;1250;72699;-54
2023/10/28 02:58:42;;;;;;;6.00;2.90;;;;;;;16.91;83.93;96094.26;109750;1250;61815;-53
2023/10/28 03:01:10;;;;;;;15.80;8.30;;;;;;;16.69;85.38;96079.79;109748;1250;59741;-54
2023/10/28 03:03:38;;;;;;;63.90;30.90;;;;;;;16.84;84.21;96079.27;109618;1250;75378;-54
2023/10/28 03:06:05;;;;;;;9.90;5.90;;;;;;;16.82;85.22;96077.71;109575;1250;68995;-55
2023/10/28 03:08:32;;;;;;;51.70;31.10;;;;;;;16.43;87.50;96066.39;109703;1250;72525;-55
2023/10/28 03:11:00;;;;;;;24.60;11.60;;;;;;;16.55;88.59;96062.98;109720;1250;62018;-54
2023/10/28 03:13:27;;;;;;;2.60;2.40;;;;;;;16.38;90.63;96066.66;109438;1251;59862;-55
2023/10/28 03:15:56;;;;;;;5.10;3.20;;;;;;;16.34;91.43;96049.30;109745;1250;75318;-55
2023/10/28 03:18:23;;;;;;;5.30;3.60;;;;;;;16.20;94.27;96061.27;109801;1250;67433;-54
2023/10/28 03:20:50;;;;;;;3.90;3.30;;;;;;;16.23;95.46;96043.67;109730;1250;72324;-55
2023/10/28 03:23:16;;;;;;;2.70;2.40;;;;;;;15.85;99.36;96047.80;109356;1251;60773;-54
2023/10/28 03:25:43;;;;;;;7.90;4.90;;;;;;;15.55;100.00;96040.00;109399;1251;59851;-54
2023/10/28 03:28:10;;;;;;;6.70;3.90;;;;;;;15.41;100.00;96030.82;109729;1250;75326;-54
2023/10/28 03:30:37;;;;;;;6.00;4.00;;;;;;;15.08;100.00;96029.47;109756;1250;68598;-55
2023/10/28 03:33:03;;;;;;;10.70;6.40;;;;;;;14.98;100.00;96024.18;109751;1250;72343;-53
2023/10/28 03:35:30;;;;;;;4.60;3.80;;;;;;;15.17;100.00;96027.63;109661;1250;61797;-54
2023/10/28 03:37:57;;;;;;;18.40;11.50;;;;;;;15.14;100.00;96018.13;109662;1250;59833;-54
2023/10/28 03:40:24;;;;;;;4.00;3.40;;;;;;;14.84;100.00;96014.23;109692;1250;74264;-54
2023/10/28 03:42:51;;;;;;;13.90;7.90;;;;;;;14.97;100.00;96007.67;109716;1251;66143;-54
2023/10/28 03:45:18;;;;;;;4.10;2.30;;;;;;;14.98;100.00;95995.65;109747;1250;72683;-55
2023/10/28 03:47:44;;;;;;;2.40;2.20;;;;;;;14.90;100.00;96003.27;109454;1251;60447;-54
2023/10/28 03:50:11;;;;;;;3.30;2.40;;;;;;;14.88;100.00;95997.98;109712;1250;59645;-56
2023/10/28 03:52:38;;;;;;;4.00;2.90;;;;;;;14.83;100.00;95988.73;109699;1250;74256;-55
2023/10/28 03:55:05;;;;;;;2.70;2.50;;;;;;;14.74;100.00;95982.16;109752;1250;67550;-54
2023/10/28 03:57:32;;;;;;;3.20;2.70;;;;;;;14.61;100.00;95972.29;109182;1251;72801;-54
2023/10/28 03:59:59;;;;;;;1.60;1.50;;;;;;;14.53;100.00;95968.41;109671;1250;61736;-54
2023/10/28 04:02:27;;;;;;;4.90;1.90;;;;;;;14.68;100.00;95979.23;109668;1251;59713;-54
2023/10/28 04:04:54;;;;;;;;;;;;;;;14.79;100.00;95976.14;109291;1252;75420;-54
2023/10/28 04:07:21;;;;;;;2.40;2.20;;;;;;;14.93;100.00;95966.19;109654;1250;68543;-54
2023/10/28 04:09:48;;;;;;;3.40;2.20;;;;;;;14.73;100.00;95975.83;109726;1250;72383;-54
2023/10/28 04:12:15;;;;;;;5.00;2.90;;;;;;;14.64;100.00;95934.70;109739;1250;61597;-55
2023/10/28 04:14:42;;;;;;;1.20;1.20;;;;;;;14.49;100.00;95956.47;109767;1251;59852;-54
2023/10/28 04:17:08;;;;;;;3.40;2.20;;;;;;;14.41;100.00;95969.87;109748;1250;74210;-54
2023/10/28 04:19:35;;;;;;;2.20;2.00;;;;;;;14.46;100.00;95959.98;109691;1250;66403;-54
2023/10/28 04:22:02;;;;;;;2.70;1.60;;;;;;;14.20;100.00;95973.19;109721;1250;72433;-53
2023/10/28 04:24:29;;;;;;;1.80;1.60;;;;;;;14.29;100.00;95989.82;109734;1250;60553;-55
2023/10/28 04:26:55;;;;;;;2.00;1.80;;;;;;;14.24;100.00;95990.22;109735;1250;59772;-54
2023/10/28 04:29:22;;;;;;;1.50;1.40;;;;;;;14.33;100.00;96022.40;109715;1250;73897;-53
2023/10/28 04:31:49;;;;;;;1.80;1.60;;;;;;;14.31;100.00;96037.09;109614;1250;125192;-53
2023/10/28 04:34:15;;;;;;;2.20;1.40;;;;;;;14.40;100.00;96018.20;109740;1251;72400;-54
2023/10/28 04:36:43;;;;;;;1.50;1.40;;;;;;;14.39;100.00;96044.52;109693;1250;61750;-54
2023/10/28 04:39:10;;;;;;;3.30;1.80;;;;;;;14.60;100.00;96066.12;109698;1250;60749;-54
2023/10/28 04:41:36;;;;;;;2.20;1.70;;;;;;;14.51;100.00;96082.57;109800;1251;75245;-53
2023/10/28 04:44:03;;;;;;;5.30;3.10;;;;;;;14.53;100.00;96084.44;109743;1250;69382;-53
2023/10/28 04:46:30;;;;;;;3.50;2.50;;;;;;;14.16;100.00;96104.66;109419;1253;71523;-53
2023/10/28 04:48:57;;;;;;;4.50;3.20;;;;;;;14.28;100.00;96112.34;109466;1253;59833;-53
2023/10/28 04:51:24;;;;;;;4.60;2.20;;;;;;;14.32;100.00;96116.80;109464;1253;59930;-54
2023/10/28 04:53:51;;;;;;;5.80;5.30;;;;;;;14.21;100.00;96127.27;109547;1253;75199;-54
2023/10/28 04:56:18;;;;;;;10.80;6.70;;;;;;;14.14;100.00;96151.73;109493;1253;67397;-53
2023/10/28 04:58:45;;;;;;;2.80;2.60;;;;;;;13.90;100.00;96153.09;109501;1253;72321;-52
2023/10/28 05:01:11;;;;;;;10.90;4.60;;;;;;;13.83;100.00;96168.13;109190;1254;60577;-53
2023/10/28 05:03:38;;;;;;;7.50;5.00;;;;;;;14.04;100.00;96187.15;109499;1253;60259;-53
2023/10/28 05:06:05;;;;;;;4.70;4.00;;;;;;;13.82;100.00;96193.84;109485;1253;74120;-53
2023/10/28 05:08:32;;;;;;;4.20;3.90;;;;;;;13.20;100.00;96218.89;109413;1253;69055;-55
2023/10/28 05:10:58;;;;;;;4.00;2.70;;;;;;;13.15;100.00;96239.08;109227;1254;70680;-53
2023/10/28 05:13:25;;;;;;;2.20;2.00;;;;;;;13.45;100.00;96241.52;109376;1254;61809;-54
2023/10/28 05:15:51;;;;;;;2.90;2.70;;;;;;;13.20;100.00;96238.98;109461;1253;59638;-55
2023/10/28 05:18:18;;;;;;;2.60;2.10;;;;;;;13.24;100.00;96269.92;109622;1251;75040;-54
2023/10/28 05:20:45;;;;;;;5.60;2.80;;;;;;;13.31;100.00;96282.30;109543;1251;68522;-54
2023/10/28 05:23:13;;;;;;;3.70;2.40;;;;;;;13.26;100.00;96302.20;109616;1251;72667;-54
2023/10/28 05:25:39;;;;;;;2.80;2.60;;;;;;;13.17;100.00;96304.61;109621;1251;60582;-55
2023/10/28 05:28:06;;;;;;;3.10;2.60;;;;;;;13.30;100.00;96332.48;109669;1251;60317;-55
2023/10/28 05:30:33;;;;;;;2.80;2.40;;;;;;;13.26;100.00;96312.38;109633;1250;74475;-54
2023/10/28 05:33:00;;;;;;;2.20;2.00;;;;;;;12.99;100.00;96350.17;109669;1251;68429;-54
2023/10/28 05:35:27;;;;;;;2.70;2.20;;;;;;;13.01;100.00;96358.38;109304;1250;71193;-54
2023/10/28 05:37:54;;;;;;;5.80;2.20;;;;;;;13.05;100.00;96387.48;109630;1251;60595;-54
2023/10/28 05:40:20;;;;;;;3.10;2.70;;;;;;;12.93;100.00;96385.73;109363;1251;59804;-54
2023/10/28 05:42:47;;;;;;;2.80;2.50;;;;;;;12.66;100.00;96395.79;109650;1251;74391;-55
2023/10/28 05:45:14;;;;;;;6.80;2.90;;;;;;;12.68;100.00;96411.38;109661;1251;67731;-56
2023/10/28 05:47:41;;;;;;;8.90;3.50;;;;;;;12.72;100.00;96425.62;109607;1251;72537;-56
2023/10/28 05:50:08;;;;;;;6.00;2.70;;;;;;;12.60;100.00;96452.35;109433;1251;60884;-55
2023/10/28 05:52:35;;;;;;;5.10;3.30;;;;;;;12.84;100.00;96451.70;109409;1251;60392;-55
2023/10/28 05:59:46;;;;;;;19.50;17.80;;;;;;;12.59;100.00;96487.32;109647;1251;67721;-54
2023/10/28 06:02:13;;;;;;;3.50;3.30;;;;;;;12.60;100.00;96492.88;109612;1252;71157;-55
2023/10/28 06:04:41;;;;;;;8.30;6.30;;;;;;;12.68;100.00;96522.23;109554;1252;59657;-55
2023/10/28 06:07:09;;;;;;;15.40;12.10;;;;;;;12.76;100.00;96539.37;109602;1252;60105;-55
2023/10/28 06:09:36;;;;;;;5.50;4.90;;;;;;;12.75;100.00;96535.80;109648;1250;75266;-55
2023/10/28 06:12:03;;;;;;;5.60;4.30;;;;;;;12.80;100.00;96523.80;109606;1251;68727;-54
2023/10/28 06:14:30;;;;;;;6.20;3.90;;;;;;;12.88;100.00;96573.16;109641;1250;71284;-55
2023/10/28 06:16:57;;;;;;;7.20;5.20;;;;;;;12.57;100.00;96563.06;109611;1251;59821;-53
2023/10/28 06:19:24;;;;;;;9.60;8.40;;;;;;;12.58;100.00;96585.52;109666;1251;60125;-55
2023/10/28 06:21:51;;;;;;;6.00;4.70;;;;;;;12.75;100.00;96603.61;109704;1250;75171;-55
2023/10/28 06:24:18;;;;;;;4.20;3.80;;;;;;;12.83;100.00;96594.46;109668;1251;68825;-56
2023/10/28 06:26:45;;;;;;;10.00;5.00;;;;;;;13.04;100.00;96617.25;109616;1251;72387;-55
2023/10/28 06:29:12;;;;;;;8.60;5.60;;;;;;;13.22;100.00;96624.05;109284;1251;61153;-55
2023/10/28 06:31:40;;;;;;;6.10;5.40;;;;;;;13.15;100.00;96624.85;109590;1252;59997;-54
2023/10/28 06:34:07;;;;;;;4.60;4.20;;;;;;;13.36;100.00;96652.79;109685;1250;75383;-54
2023/10/28 06:36:33;;;;;;;5.00;3.90;;;;;;;13.15;100.00;96655.19;109299;1253;68475;-55
2023/10/28 06:39:00;;;;;;;7.30;6.60;;;;;;;13.03;100.00;96659.82;109628;1251;72482;-54
2023/10/28 06:41:27;;;;;;;4.30;3.90;;;;;;;13.37;100.00;96677.65;109656;1251;61756;-56
2023/10/28 06:43:54;;;;;;;4.50;4.20;;;;;;;13.24;100.00;96670.88;109626;1251;59980;-55
2023/10/28 06:46:20;;;;;;;5.30;4.80;;;;;;;13.36;100.00;96697.48;109695;1250;73972;-54
2023/10/28 06:48:47;;;;;;;5.20;4.80;;;;;;;13.56;100.00;96719.09;109295;1251;68554;-56
2023/10/28 06:51:14;;;;;;;3.00;2.80;;;;;;;13.34;100.00;96701.36;109656;1251;72348;-53
2023/10/28 06:53:41;;;;;;;4.20;3.90;;;;;;;13.29;100.00;96717.05;109581;1253;60448;-55
2023/10/28 06:56:07;;;;;;;20.80;18.70;;;;;;;13.12;100.00;96728.20;109273;1253;59849;-54
2023/10/28 06:58:34;;;;;;;11.80;9.20;;;;;;;13.06;100.00;96702.05;109590;1251;74404;-53
2023/10/28 07:01:02;;;;;;;6.60;6.00;;;;;;;13.23;100.00;96749.69;109723;1250;66512;-54
2023/10/28 07:03:29;;;;;;;6.30;5.60;;;;;;;13.35;100.00;96769.73;109564;1252;72512;-54
2023/10/28 07:05:56;;;;;;;4.60;4.20;;;;;;;13.22;100.00;96778.94;109555;1252;61732;-53
2023/10/28 07:08:23;;;;;;;4.90;4.30;;;;;;;13.35;100.00;96792.70;109630;1251;60029;-54
2023/10/28 07:10:49;;;;;;;5.20;4.70;;;;;;;13.42;100.00;96800.51;109592;1251;74398;-54
2023/10/28 07:13:16;;;;;;;5.30;4.20;;;;;;;13.49;100.00;96797.95;109729;1250;67111;-54
2023/10/28 07:15:44;;;;;;;5.90;5.30;;;;;;;13.55;100.00;96811.69;109723;1250;72467;-53
2023/10/28 07:18:13;;;;;;;4.00;3.70;;;;;;;13.85;100.00;96831.73;109718;1251;60524;-54
2023/10/28 07:20:40;;;;;;;7.30;5.20;;;;;;;13.70;100.00;96835.48;109707;1250;59935;-54
2023/10/28 07:23:08;;;;;;;4.70;4.20;;;;;;;13.75;100.00;96842.05;109809;1251;75575;-55
2023/10/28 07:25:35;;;;;;;4.40;4.00;;;;;;;13.43;100.00;96837.09;109710;1251;67148;-53
2023/10/28 07:28:04;;;;;;;4.80;3.70;;;;;;;13.64;100.00;96857.09;109719;1250;72597;-55
2023/10/28 07:30:30;;;;;;;;;;;;;;;13.43;100.00;96871.73;109705;1251;61781;-54
2023/10/28 07:32:57;;;;;;;5.20;4.30;;;;;;;13.71;100.00;96884.85;109753;1250;59784;-53
2023/10/28 07:35:24;;;;;;;3.90;3.60;;;;;;;13.72;100.00;96894.58;109746;1250;75498;-55
2023/10/28 07:37:51;;;;;;;4.00;3.70;;;;;;;13.64;100.00;96895.42;109501;1251;68503;-54
2023/10/28 07:40:18;;;;;;;3.50;3.20;;;;;;;13.52;100.00;96906.73;109706;1251;71504;-55
2023/10/28 07:42:45;;;;;;;4.20;3.80;;;;;;;13.91;100.00;96920.34;109731;1250;60788;-55
2023/10/28 07:45:13;;;;;;;3.70;3.40;;;;;;;13.85;100.00;96930.94;109748;1254;60238;-54
2023/10/28 07:47:40;;;;;;;4.10;3.80;;;;;;;13.77;100.00;96915.31;109790;1251;75518;-54
2023/10/28 07:50:07;;;;;;;3.80;3.10;;;;;;;13.66;100.00;96931.92;109746;1250;67817;-54
2023/10/28 07:52:34;;;;;;;17.20;13.60;;;;;;;13.61;100.00;96932.13;109742;1251;72671;-54
2023/10/28 07:55:04;;;;;;;4.60;4.10;;;;;;;13.54;100.00;96953.23;109715;1250;60717;-54
2023/10/28 07:57:31;;;;;;;5.30;4.90;;;;;;;13.61;100.00;96965.79;109526;1250;60288;-53
2023/10/28 07:59:57;;;;;;;7.80;7.00;;;;;;;13.53;100.00;96964.23;109484;1251;75310;-54
2023/10/28 08:02:24;;;;;;;8.60;7.70;;;;;;;13.62;100.00;96963.27;109744;1251;67807;-53
2023/10/28 08:04:54;;;;;;;14.00;12.50;;;;;;;13.72;100.00;96973.16;109731;1250;72495;-54
2023/10/28 08:07:21;;;;;;;10.10;9.10;;;;;;;13.81;100.00;96978.35;109744;1250;61093;-55
2023/10/28 08:09:48;;;;;;;17.30;10.80;;;;;;;13.98;100.00;97000.77;109698;1251;60456;-55
2023/10/28 08:12:15;;;;;;;5.00;4.50;;;;;;;13.83;100.00;96994.42;109740;1250;74682;-54
2023/10/28 08:14:48;;;;;;;10.00;7.20;;;;;;;13.86;100.00;97009.01;109746;1251;68783;-53
2023/10/28 08:17:16;;;;;;;6.50;5.50;;;;;;;13.94;100.00;97024.08;109683;1251;72423;-54
2023/10/28 08:19:42;;;;;;;5.30;4.80;;;;;;;14.02;100.00;97024.77;109716;1251;60692;-57
2023/10/28 08:22:12;;;;;;;5.10;4.60;;;;;;;14.03;100.00;97034.64;109735;1250;59814;-53
2023/10/28 08:24:39;;;;;;;6.90;5.60;;;;;;;13.77;100.00;97039.60;109490;1251;75222;-54
2023/10/28 08:27:08;;;;;;;4.30;3.90;;;;;;;14.15;100.00;97064.73;109558;1251;67956;-54
2023/10/28 08:29:35;;;;;;;5.30;4.80;;;;;;;14.09;100.00;97074.01;109736;1251;71639;-54
2023/10/28 08:32:01;;;;;;;7.20;4.60;;;;;;;14.18;100.00;97074.88;109311;1251;61761;-59
2023/10/28 08:34:28;;;;;;;3.20;3.00;;;;;;;14.29;100.00;97091.34;109366;1251;59781;-55
2023/10/28 08:36:55;;;;;;;4.00;3.60;;;;;;;14.19;100.00;97102.39;109569;1251;75437;-55
2023/10/28 08:39:23;;;;;;;4.80;4.40;;;;;;;14.20;100.00;97105.64;109775;1251;67326;-55
2023/10/28 08:41:50;;;;;;;3.70;3.40;;;;;;;14.46;100.00;97117.86;109762;1250;71323;-53
2023/10/28 08:44:27;;;;;;;4.60;4.10;;;;;;;14.38;100.00;97125.10;109494;1251;60524;-53
2023/10/28 08:46:54;;;;;;;3.80;3.20;;;;;;;14.14;100.00;97134.20;109740;1251;59779;-53
2023/10/28 08:49:21;;;;;;;6.20;4.80;;;;;;;14.01;100.00;97124.69;109784;1251;75519;-54
2023/10/28 08:51:49;;;;;;;5.00;4.00;;;;;;;14.46;100.00;97149.02;109719;1251;67202;-54
2023/10/28 08:54:16;;;;;;;6.10;4.10;;;;;;;14.20;100.00;97140.23;109632;1251;72478;-55
2023/10/28 08:56:43;;;;;;;4.10;3.70;;;;;;;14.61;100.00;97163.29;109703;1250;61863;-54
2023/10/28 08:59:10;;;;;;;4.40;4.00;;;;;;;14.86;100.00;97167.02;109725;1251;59707;-53
2023/10/28 09:01:37;;;;;;;5.00;3.40;;;;;;;14.97;100.00;97174.21;109711;1251;75341;-53
2023/10/28 09:04:04;;;;;;;3.20;3.00;;;;;;;14.95;100.00;97177.32;109612;1251;68754;-52
2023/10/28 09:06:32;;;;;;;5.00;4.40;;;;;;;14.93;100.00;97191.38;109585;1252;72755;-54
2023/10/28 09:09:07;;;;;;;3.80;3.50;;;;;;;14.93;100.00;97178.27;109606;1251;60389;-54
2023/10/28 09:11:36;;;;;;;4.30;3.60;;;;;;;15.10;100.00;97198.42;109625;1251;59779;-56
2023/10/28 09:14:07;;;;;;;4.90;4.20;;;;;;;15.20;100.00;97212.65;109552;1251;73430;-56
2023/10/28 09:16:34;;;;;;;5.20;4.50;;;;;;;15.13;100.00;97197.61;109629;1251;68730;-54
2023/10/28 09:19:02;;;;;;;4.20;3.90;;;;;;;15.10;100.00;97203.39;109606;1251;72699;-54
2023/10/28 09:21:29;;;;;;;32.10;15.80;;;;;;;15.16;100.00;97217.16;109621;1251;61830;-54
2023/10/28 09:24:02;;;;;;;13.70;7.60;;;;;;;15.32;98.98;97227.98;109627;1251;60286;-54
2023/10/28 09:26:30;;;;;;;8.20;3.90;;;;;;;15.44;97.26;97241.67;109431;1251;74181;-56
2023/10/28 09:28:58;;;;;;;7.30;4.70;;;;;;;16.05;95.37;97248.14;109691;1254;67611;-53
2023/10/28 09:31:25;;;;;;;5.10;4.20;;;;;;;15.88;90.53;97249.80;109647;1251;72668;-54
2023/10/28 09:33:52;;;;;;;15.20;10.40;;;;;;;16.25;84.17;97265.35;109612;1255;62031;-55
2023/10/28 09:36:19;;;;;;;5.40;4.90;;;;;;;16.51;80.90;97261.32;109620;1251;60268;-54
2023/10/28 09:38:47;;;;;;;6.50;5.90;;;;;;;16.70;78.09;97274.80;109614;1251;73964;-54
2023/10/28 09:41:14;;;;;;;3.70;3.30;;;;;;;16.93;76.22;97273.19;109556;1250;67111;-55
2023/10/28 09:43:41;;;;;;;5.40;2.80;;;;;;;17.30;73.81;97281.31;109675;1251;72919;-54
2023/10/28 09:46:07;;;;;;;3.70;3.40;;;;;;;17.48;73.34;97298.54;109380;1251;61673;-54
2023/10/28 09:48:38;;;;;;;6.00;5.50;;;;;;;17.00;75.16;97296.59;109641;1251;59731;-55
2023/10/28 09:51:05;;;;;;;5.50;3.60;;;;;;;17.00;75.44;97292.78;109578;1250;74047;-55
2023/10/28 09:53:35;;;;;;;3.60;2.80;;;;;;;16.95;75.01;97289.04;109320;1251;68761;-56
2023/10/28 09:56:02;;;;;;;9.30;5.90;;;;;;;16.89;75.85;97300.98;109642;1251;71896;-54
2023/10/28 09:58:32;;;;;;;6.90;6.20;;;;;;;17.07;74.56;97310.30;109600;1251;61741;-54
2023/10/28 10:01:30;;;;;;;3.10;2.80;;;;;;;16.58;76.35;97298.85;109619;1254;60109;-55
2023/10/28 10:04:04;;;;;;;6.90;5.50;;;;;;;17.04;73.54;97317.90;109435;1253;74087;-55
2023/10/28 10:06:31;;;;;;;4.60;4.10;;;;;;;17.29;71.52;97326.84;109595;1253;68634;-55
2023/10/28 10:08:58;;;;;;;4.20;3.60;;;;;;;17.33;71.87;97335.91;109637;1251;71562;-54
2023/10/28 10:11:25;;;;;;;5.70;5.10;;;;;;;17.15;71.96;97345.81;109489;1251;61613;-53
2023/10/28 10:13:55;;;;;;;2.70;2.50;;;;;;;16.95;72.31;97359.16;109678;1251;59745;-54
2023/10/28 10:16:47;;;;;;;5.70;4.60;;;;;;;17.07;73.09;97372.80;109626;1253;74137;-53
2023/10/28 10:19:30;;;;;;;3.60;3.30;;;;;;;16.99;73.66;97369.79;109362;1251;68446;-55
2023/10/28 10:21:57;;;;;;;3.40;3.10;;;;;;;16.85;75.48;97392.52;109574;1252;71497;-56
2023/10/28 10:24:24;;;;;;;4.70;3.70;;;;;;;16.79;76.35;97394.29;109331;1251;62109;-54
2023/10/28 10:27:02;;;;;;;5.10;3.90;;;;;;;16.73;76.66;97387.63;109662;1251;60018;-54
2023/10/28 10:29:40;;;;;;;4.70;3.70;;;;;;;16.83;77.18;97403.36;109653;1250;74260;-54
2023/10/28 10:32:16;;;;;;;4.80;3.60;;;;;;;16.76;76.15;97410.08;109632;1251;68409;-53
2023/10/28 10:34:45;;;;;;;7.30;4.50;;;;;;;16.96;76.22;97424.69;109638;1251;70971;-55
2023/10/28 10:37:25;;;;;;;4.30;3.20;;;;;;;16.98;75.42;97430.02;109242;1256;60590;-54
2023/10/28 10:39:53;;;;;;;3.60;3.30;;;;;;;16.85;74.65;97435.64;109618;1251;59635;-55
2023/10/28 10:42:20;;;;;;;7.80;3.30;;;;;;;16.92;73.59;97453.09;109676;1251;74176;-54
2023/10/28 10:44:47;;;;;;;3.30;3.00;;;;;;;16.80;74.10;97446.48;109672;1251;68841;-55
2023/10/28 10:47:17;;;;;;;4.00;3.30;;;;;;;16.75;74.35;97453.44;109635;1253;72356;-54
2023/10/28 10:49:44;;;;;;;4.60;3.80;;;;;;;16.62;76.08;97468.72;109599;1251;61621;-54
2023/10/28 10:52:11;;;;;;;3.20;2.90;;;;;;;16.84;74.59;97481.41;109623;1251;60476;-54
2023/10/28 10:54:38;;;;;;;4.60;2.60;;;;;;;16.93;72.32;97482.98;109565;1251;75137;-54
2023/10/28 10:57:08;;;;;;;4.80;3.60;;;;;;;16.80;70.61;97500.50;109608;1251;68754;-55
2023/10/28 10:59:38;;;;;;;2.50;2.30;;;;;;;16.23;70.81;97501.47;109634;1250;72641;-54
2023/10/28 11:02:05;;;;;;;3.50;2.30;;;;;;;16.58;68.65;97508.92;109579;1251;60793;-54
2023/10/28 11:04:34;;;;;;;4.40;3.40;;;;;;;16.93;66.72;97526.97;109591;1253;60031;-54
2023/10/28 11:07:02;;;;;;;2.00;1.90;;;;;;;16.53;66.95;97531.44;109608;1253;75497;-54
2023/10/28 11:09:30;;;;;;;3.50;3.20;;;;;;;16.44;67.63;97533.52;109709;1251;68815;-54
2023/10/28 11:11:56;;;;;;;2.90;2.70;;;;;;;16.19;69.37;97532.81;109716;1251;72568;-54
2023/10/28 11:14:24;;;;;;;15.00;4.90;;;;;;;16.43;68.97;97551.34;109730;1251;60826;-54
2023/10/28 11:16:50;;;;;;;3.20;3.00;;;;;;;16.72;68.23;97551.27;109596;1251;59776;-53
2023/10/28 11:19:17;;;;;;;6.80;6.10;;;;;;;16.92;67.75;97555.10;109346;1253;74188;-53
2023/10/28 11:21:44;;;;;;;4.40;4.10;;;;;;;17.17;63.96;97534.67;109407;1253;68896;-53
2023/10/28 11:24:12;;;;;;;4.50;4.10;;;;;;;17.33;62.50;97547.33;109738;1251;72575;-52